Time;durP1;ratioP1;P1;durP2;ratioP2;P2;SDS_P1;SDS_P2;PMS_P1;PMS_P2;Temp;Humidity;BMP_temperature;BMP_pressure;BME280_temperature;BME280_humidity;BME280_pressure;Samples;Min_cycle;Max_cycle;Signal;HPM_P1;HPM_P2
2022/09/27 00:01:16;;;;;;;13.90;4.00;;;;;;;8.72;100.00;99553.59;5262033;28;20112;-76
2022/09/27 00:03:47;;;;;;;12.23;4.00;;;;;;;8.70;100.00;99549.34;5262054;28;20039;-76
2022/09/27 00:06:25;;;;;;;8.20;3.20;;;;;;;8.68;100.00;99557.19;5262004;28;20033;-76
2022/09/27 00:08:57;;;;;;;14.30;3.83;;;;;;;8.65;100.00;99551.22;5261810;28;20029;-77
2022/09/27 00:11:33;;;;;;;12.82;3.20;;;;;;;8.66;100.00;99551.19;5265870;28;20460;-75
2022/09/27 00:14:06;;;;;;;15.88;3.55;;;;;;;8.63;100.00;99556.44;5266504;28;20090;-75
2022/09/27 00:16:38;;;;;;;8.32;2.88;;;;;;;8.63;100.00;99553.84;5265566;28;20486;-75
2022/09/27 00:19:16;;;;;;;7.43;2.53;;;;;;;8.61;100.00;99559.97;5266114;28;20029;-76
2022/09/27 00:21:49;;;;;;;8.57;3.13;;;;;;;8.61;100.00;99571.19;5266455;28;20107;-77
2022/09/27 00:24:21;;;;;;;12.03;2.80;;;;;;;8.58;100.00;99560.88;5265274;28;20037;-76
2022/09/27 00:26:53;;;;;;;10.05;2.83;;;;;;;8.60;100.00;99574.69;5265545;28;20438;-75
2022/09/27 00:29:24;;;;;;;12.87;2.83;;;;;;;8.58;100.00;99572.13;5265192;28;20033;-77
2022/09/27 00:31:55;;;;;;;9.13;2.60;;;;;;;8.58;100.00;99586.84;5265713;28;20403;-76
2022/09/27 00:34:27;;;;;;;9.60;2.67;;;;;;;8.60;100.00;99608.47;5264918;28;20037;-75
2022/09/27 00:36:58;;;;;;;11.50;3.07;;;;;;;8.62;100.00;99608.44;5265491;28;20353;-76
2022/09/27 00:39:29;;;;;;;7.90;2.20;;;;;;;8.60;100.00;99589.41;5265429;28;20033;-76
2022/09/27 00:42:01;;;;;;;9.60;2.90;;;;;;;8.58;100.00;99586.84;5265364;28;20061;-76
2022/09/27 00:44:32;;;;;;;8.67;2.50;;;;;;;8.57;100.00;99592.97;5265220;28;20052;-75
2022/09/27 00:47:29;;;;;;;8.33;2.60;;;;;;;8.55;100.00;99581.75;5264959;28;20469;-75
2022/09/27 00:50:04;;;;;;;9.18;2.65;;;;;;;8.58;100.00;99587.72;5264929;28;20060;-74
2022/09/27 00:52:45;;;;;;;8.52;2.47;;;;;;;8.55;100.00;99581.75;5264831;28;20033;-76
2022/09/27 00:55:26;;;;;;;12.40;3.17;;;;;;;8.56;100.00;99584.31;5265569;28;20063;-75
2022/09/27 00:57:59;;;;;;;10.57;2.88;;;;;;;8.54;100.00;99580.88;5264906;28;20025;-75
2022/09/27 01:00:30;;;;;;;9.25;2.53;;;;;;;8.53;100.00;99583.50;5264986;28;20453;-75
2022/09/27 01:03:06;;;;;;;11.83;2.67;;;;;;;8.52;100.00;99577.47;5264832;28;20037;-75
2022/09/27 01:05:39;;;;;;;8.23;2.20;;;;;;;8.52;100.00;99576.63;5265134;28;20021;-74
2022/09/27 01:08:10;;;;;;;;;;;;;;;8.49;100.00;99589.69;5265316;28;20094;-76
2022/09/27 01:10:53;;;;;;;25.23;2.78;;;;;;;8.45;100.00;99586.28;5265034;28;19916;-75
2022/09/27 01:13:36;;;;;;;10.18;2.20;;;;;;;8.44;100.00;99591.53;5264889;28;20045;-75
2022/09/27 01:16:45;;;;;;;10.07;2.00;;;;;;;8.42;100.00;99591.53;5264456;28;20440;-75
2022/09/27 01:19:49;;;;;;;8.43;2.05;;;;;;;8.36;100.00;99576.94;5264716;28;20071;-75
2022/09/27 01:22:37;;;;;;;3.35;1.58;;;;;;;8.44;100.00;99583.75;5263739;28;20033;-75
2022/09/27 01:25:30;;;;;;;8.82;2.42;;;;;;;8.34;100.00;99583.06;5264762;28;20033;-76
2022/09/27 01:28:12;;;;;;;6.53;1.60;;;;;;;8.35;100.00;99587.38;5264693;28;20120;-77
2022/09/27 01:30:49;;;;;;;6.53;1.52;;;;;;;8.28;100.00;99597.03;5263755;28;20028;-75
2022/09/27 01:33:32;;;;;;;13.40;2.53;;;;;;;8.30;100.00;99602.19;5264525;28;20029;-76
2022/09/27 01:36:14;;;;;;;8.35;2.15;;;;;;;8.34;100.00;99606.41;5263722;28;20032;-76
2022/09/27 01:39:07;;;;;;;6.95;2.10;;;;;;;8.30;100.00;99603.03;5264968;28;20036;-76
2022/09/27 01:41:53;;;;;;;8.90;1.80;;;;;;;8.27;100.00;99616.09;5264031;28;20029;-75
2022/09/27 01:44:36;;;;;;;11.70;2.45;;;;;;;8.26;100.00;99616.13;5264342;28;20108;-76
2022/09/27 01:47:16;;;;;;;7.53;1.63;;;;;;;8.20;100.00;99615.38;5264536;28;20099;-76
2022/09/27 01:50:01;;;;;;;12.80;2.50;;;;;;;8.13;100.00;99611.22;5263706;28;20068;-76
2022/09/27 01:52:57;;;;;;;9.32;1.77;;;;;;;8.12;100.00;99617.28;5263815;28;20029;-77
2022/09/27 01:55:33;;;;;;;7.05;1.75;;;;;;;8.11;100.00;99617.31;5264309;28;20119;-77
2022/09/27 01:58:28;;;;;;;6.35;1.85;;;;;;;8.08;100.00;99626.00;5263773;28;20067;-77
2022/09/27 02:01:01;;;;;;;7.57;1.80;;;;;;;8.07;100.00;99629.50;5263821;28;20397;-78
2022/09/27 02:03:39;;;;;;;7.20;1.70;;;;;;;8.05;100.00;99618.31;5263363;28;20029;-77
2022/09/27 02:06:16;;;;;;;6.13;1.75;;;;;;;8.03;100.00;99607.97;5264235;28;20037;-77
2022/09/27 02:09:12;;;;;;;6.35;1.50;;;;;;;8.02;100.00;99615.78;5263881;28;20040;-77
2022/09/27 02:11:54;;;;;;;9.00;2.42;;;;;;;7.97;100.00;99615.88;5263534;28;20027;-77
2022/09/27 02:14:33;;;;;;;7.30;1.80;;;;;;;7.97;100.00;99628.84;5264415;28;20045;-78
2022/09/27 02:17:19;;;;;;;7.30;2.45;;;;;;;7.95;100.00;99628.03;5263298;28;20039;-77
2022/09/27 02:20:25;;;;;;;5.53;1.15;;;;;;;7.89;100.00;99622.97;5262975;28;20439;-77
2022/09/27 02:23:21;;;;;;;6.88;1.70;;;;;;;7.89;100.00;99622.09;5263106;28;20032;-76
2022/09/27 02:25:59;;;;;;;7.50;1.75;;;;;;;7.89;100.00;99622.09;5263274;28;20029;-76
2022/09/27 02:28:48;;;;;;;8.32;2.92;;;;;;;7.84;100.00;99619.59;5262944;28;20116;-76
2022/09/27 02:31:20;;;;;;;3.80;1.30;;;;;;;7.90;100.00;99613.44;5264059;28;20024;-76
2022/09/27 02:34:02;;;;;;;9.87;2.47;;;;;;;7.82;100.00;99614.47;5262588;28;20078;-77
2022/09/27 02:36:33;;;;;;;9.40;1.88;;;;;;;7.83;100.00;99623.94;5263072;28;20033;-76
2022/09/27 02:39:06;;;;;;;12.73;2.57;;;;;;;7.84;100.00;99635.16;5263003;28;20388;-76
2022/09/27 02:41:37;;;;;;;7.22;1.55;;;;;;;7.87;100.00;99637.69;5263001;28;20029;-76
2022/09/27 02:44:12;;;;;;;5.60;1.90;;;;;;;7.78;100.00;99635.31;5263493;28;20033;-76
2022/09/27 02:47:07;;;;;;;11.15;1.77;;;;;;;7.73;100.00;99634.53;5263375;28;20109;-77
2022/09/27 02:50:15;;;;;;;9.13;1.73;;;;;;;7.66;100.00;99631.19;5263098;28;20029;-76
2022/09/27 02:53:06;;;;;;;10.50;1.95;;;;;;;7.61;100.00;99625.25;5263764;28;20078;-77
2022/09/27 02:55:41;;;;;;;4.60;1.73;;;;;;;7.60;100.00;99637.38;5263252;28;20032;-75
2022/09/27 02:58:30;;;;;;;9.13;3.45;;;;;;;7.55;100.00;99625.34;5262306;28;20358;-77
2022/09/27 03:01:11;;;;;;;8.10;1.60;;;;;;;7.56;100.00;99627.09;5263209;28;20372;-77
2022/09/27 03:03:46;;;;;;;5.97;1.80;;;;;;;7.52;100.00;99621.09;5263524;28;20033;-77
2022/09/27 03:06:21;;;;;;;6.80;1.70;;;;;;;7.50;100.00;99622.84;5262676;28;20477;-78
2022/09/27 03:08:53;;;;;;;6.68;2.00;;;;;;;7.52;100.00;99617.63;5262509;28;20029;-77
2022/09/27 03:11:24;;;;;;;9.57;2.07;;;;;;;7.47;100.00;99615.13;5262561;28;20036;-77
2022/09/27 03:13:56;;;;;;;8.27;2.40;;;;;;;7.47;100.00;99615.13;5261393;28;20053;-76
2022/09/27 03:16:27;;;;;;;10.07;2.10;;;;;;;7.46;100.00;99613.44;5262126;28;20380;-75
2022/09/27 03:18:59;;;;;;;8.03;2.17;;;;;;;7.42;100.00;99609.19;5262454;28;20459;-77
2022/09/27 03:21:30;;;;;;;5.67;2.00;;;;;;;7.44;100.00;99613.47;5262589;28;20037;-78
2022/09/27 03:24:02;;;;;;;17.47;3.33;;;;;;;7.39;100.00;99623.06;5262461;28;20036;-76
2022/09/27 03:26:33;;;;;;;9.13;1.90;;;;;;;7.41;100.00;99623.88;5262095;28;20106;-76
2022/09/27 03:29:05;;;;;;;9.43;2.37;;;;;;;7.40;100.00;99639.47;5262449;28;20048;-76
2022/09/27 03:31:36;;;;;;;12.37;2.33;;;;;;;7.41;100.00;99626.47;5262333;28;20119;-76
2022/09/27 03:34:07;;;;;;;9.83;2.27;;;;;;;7.46;100.00;99629.00;5262713;28;20519;-77
2022/09/27 03:36:39;;;;;;;9.83;1.90;;;;;;;7.49;100.00;99631.53;5262550;28;20028;-76
2022/09/27 03:39:10;;;;;;;15.93;2.77;;;;;;;7.51;100.00;99636.69;5261975;28;20033;-76
2022/09/27 03:41:41;;;;;;;12.33;2.70;;;;;;;7.52;100.00;99634.06;5262346;28;20457;-76
2022/09/27 03:44:13;;;;;;;11.57;2.30;;;;;;;7.55;100.00;99643.50;5263140;28;20068;-76
2022/09/27 03:46:44;;;;;;;10.03;1.97;;;;;;;7.56;100.00;99647.81;5266188;28;20079;-78
2022/09/27 03:49:16;;;;;;;9.60;2.00;;;;;;;7.59;100.00;99643.44;5268402;28;20411;-76
2022/09/27 03:51:47;;;;;;;8.50;2.07;;;;;;;7.61;100.00;99654.63;5268137;28;20468;-77
2022/09/27 03:54:19;;;;;;;9.10;1.87;;;;;;;7.61;100.00;99657.22;5266282;28;20274;-78
2022/09/27 03:56:51;;;;;;;12.73;1.93;;;;;;;7.64;100.00;99667.53;5266470;28;20121;-78
2022/09/27 03:59:22;;;;;;;15.07;2.78;;;;;;;7.67;100.00;99674.41;5266056;28;20033;-79
2022/09/27 04:01:55;;;;;;;8.97;1.77;;;;;;;7.67;100.00;99674.41;5266039;28;20029;-79
2022/09/27 04:04:26;;;;;;;7.63;2.55;;;;;;;7.67;100.00;99685.63;5265892;28;20029;-78
2022/09/27 04:06:58;;;;;;;7.43;2.10;;;;;;;7.69;100.00;99687.34;5266239;28;20056;-77
2022/09/27 04:09:29;;;;;;;8.23;2.97;;;;;;;7.70;100.00;99689.94;5266447;28;20078;-77
2022/09/27 04:12:01;;;;;;;11.00;2.70;;;;;;;7.66;100.00;99683.06;5265541;28;20112;-75
2022/09/27 04:14:32;;;;;;;6.80;1.83;;;;;;;7.62;100.00;99682.28;5265880;28;20391;-78
2022/09/27 04:17:03;;;;;;;8.07;2.00;;;;;;;7.62;100.00;99676.25;5265361;28;20116;-76
2022/09/27 04:19:36;;;;;;;7.43;1.97;;;;;;;7.62;100.00;99674.50;5265225;28;20119;-76
2022/09/27 04:22:07;;;;;;;;;;;;;;;7.59;100.00;99676.31;5264850;28;20025;-77
2022/09/27 04:24:39;;;;;;;5.53;1.30;;;;;;;7.54;100.00;99662.56;5265611;28;19979;-78
2022/09/27 04:27:10;;;;;;;12.27;2.43;;;;;;;7.49;100.00;99653.13;5265688;28;20037;-77
2022/09/27 04:29:44;;;;;;;3.57;1.20;;;;;;;7.49;100.00;99649.69;5265523;28;20043;-77
2022/09/27 04:32:15;;;;;;;4.15;1.80;;;;;;;7.47;100.00;99654.03;5265371;28;20037;-76
2022/09/27 04:37:37;;;;;;;8.48;1.33;;;;;;;7.45;100.00;99648.00;5265993;28;20062;-77
2022/09/27 04:40:08;;;;;;;4.63;1.17;;;;;;;7.38;100.00;99654.22;5265147;28;20063;-76
2022/09/27 04:42:40;;;;;;;3.90;1.50;;;;;;;7.40;100.00;99647.25;5265660;28;20127;-75
2022/09/27 04:45:12;;;;;;;12.17;1.83;;;;;;;7.36;100.00;99645.59;5265119;28;20033;-76
2022/09/27 04:47:48;;;;;;;6.47;1.48;;;;;;;7.36;100.00;99649.03;5265507;28;20033;-77
2022/09/27 04:50:19;;;;;;;5.07;1.35;;;;;;;7.31;100.00;99645.69;5264296;28;20051;-78
2022/09/27 04:52:52;;;;;;;5.30;1.40;;;;;;;7.32;100.00;99649.13;5265113;28;20116;-76
2022/09/27 04:55:23;;;;;;;9.40;2.67;;;;;;;7.32;100.00;99652.56;5264759;28;20410;-77
2022/09/27 04:57:55;;;;;;;5.07;1.30;;;;;;;7.31;100.00;99658.66;5264890;28;20037;-76
2022/09/27 05:00:27;;;;;;;2.20;1.17;;;;;;;7.28;100.00;99667.31;5265017;28;20029;-78
2022/09/27 05:02:59;;;;;;;;;;;;;;;7.28;100.00;99675.09;5265420;28;20032;-77
2022/09/27 05:05:30;;;;;;;7.53;1.30;;;;;;;7.35;100.00;99680.19;5264253;28;19919;-77
2022/09/27 05:08:01;;;;;;;5.90;1.53;;;;;;;7.32;100.00;99682.81;5264714;28;20387;-78
2022/09/27 05:10:32;;;;;;;5.23;1.30;;;;;;;7.36;100.00;99687.06;5264789;28;20033;-77
2022/09/27 05:13:05;;;;;;;7.30;1.47;;;;;;;7.31;100.00;99687.16;5264285;28;20492;-78
2022/09/27 05:15:36;;;;;;;6.63;1.73;;;;;;;7.28;100.00;99680.28;5265080;28;20373;-79
2022/09/27 05:18:08;;;;;;;3.90;1.53;;;;;;;7.27;100.00;99672.53;5264479;28;20040;-78
2022/09/27 05:20:40;;;;;;;5.43;1.65;;;;;;;7.26;100.00;99692.44;5264274;28;20028;-79
2022/09/27 05:23:12;;;;;;;6.38;1.75;;;;;;;7.25;100.00;99692.44;5264744;28;20060;-79
2022/09/27 05:25:43;;;;;;;8.37;1.90;;;;;;;7.27;100.00;99695.88;5264413;28;20064;-77
2022/09/27 05:28:15;;;;;;;4.00;1.63;;;;;;;7.23;100.00;99674.34;5264045;28;20171;-77
2022/09/27 05:30:46;;;;;;;4.23;1.60;;;;;;;7.26;100.00;99674.28;5263781;28;20422;-78
2022/09/27 05:33:17;;;;;;;4.83;1.60;;;;;;;7.26;100.00;99676.00;5264476;28;20040;-77
2022/09/27 05:35:56;;;;;;;5.73;1.63;;;;;;;7.27;100.00;99680.31;5264483;28;20035;-77
2022/09/27 05:38:28;;;;;;;5.47;2.50;;;;;;;7.24;100.00;99681.19;5264676;28;20369;-78
2022/09/27 05:41:00;;;;;;;6.85;1.67;;;;;;;7.22;100.00;99687.31;5264221;28;20038;-77
2022/09/27 05:43:31;;;;;;;3.97;1.23;;;;;;;7.21;100.00;99686.47;5264081;28;20033;-78
2022/09/27 05:46:04;;;;;;;6.50;1.57;;;;;;;7.22;100.00;99684.72;5263579;28;20171;-78
2022/09/27 05:48:35;;;;;;;;;;;;;;;7.21;100.00;99685.59;5265018;28;20091;-78
2022/09/27 05:51:07;;;;;;;4.28;1.30;;;;;;;7.23;100.00;99681.22;5263590;28;20034;-78
2022/09/27 05:53:38;;;;;;;7.10;2.27;;;;;;;7.23;100.00;99696.78;5263496;28;20021;-78
2022/09/27 05:56:09;;;;;;;7.90;2.57;;;;;;;7.24;100.00;99695.91;5263194;28;20029;-78
2022/09/27 05:58:41;;;;;;;6.47;2.47;;;;;;;7.29;100.00;99702.75;5263778;28;20044;-77
2022/09/27 06:01:12;;;;;;;5.27;2.10;;;;;;;7.26;100.00;99694.13;5263818;28;20116;-78
2022/09/27 06:03:44;;;;;;;8.17;2.53;;;;;;;7.26;100.00;99695.00;5263466;28;20082;-77
2022/09/27 06:06:16;;;;;;;6.70;1.88;;;;;;;7.23;100.00;99692.47;5263464;28;20112;-78
2022/09/27 06:08:48;;;;;;;9.63;2.27;;;;;;;7.28;100.00;99703.63;5262616;28;20116;-78
2022/09/27 06:11:19;;;;;;;5.28;1.83;;;;;;;7.29;100.00;99694.09;5263320;28;20032;-78
2022/09/27 06:13:51;;;;;;;4.13;1.90;;;;;;;7.27;100.00;99694.13;5261875;28;20488;-78
2022/09/27 06:16:22;;;;;;;6.80;2.10;;;;;;;7.19;100.00;99690.81;5263150;28;20025;-79
2022/09/27 06:18:53;;;;;;;2.80;1.27;;;;;;;7.19;100.00;99695.13;5263086;28;20029;-79
2022/09/27 06:21:27;;;;;;;4.70;1.47;;;;;;;7.22;100.00;99698.53;5263102;28;20029;-78
2022/09/27 06:23:58;;;;;;;2.65;1.30;;;;;;;7.23;100.00;99695.06;5262972;28;20067;-78
2022/09/27 06:26:30;;;;;;;5.10;1.87;;;;;;;7.15;100.00;99696.06;5263257;28;20064;-80
2022/09/27 06:29:01;;;;;;;3.23;1.60;;;;;;;7.15;100.00;99690.88;5262892;28;20393;-77
2022/09/27 06:31:32;;;;;;;4.90;1.77;;;;;;;7.21;100.00;99696.84;5262831;28;20113;-78
2022/09/27 06:34:04;;;;;;;2.87;1.87;;;;;;;7.25;100.00;99698.47;5262814;28;20417;-78
2022/09/27 06:36:35;;;;;;;3.30;2.30;;;;;;;7.20;100.00;99699.44;5262819;28;20029;-78
2022/09/27 06:39:06;;;;;;;4.73;1.80;;;;;;;7.14;100.00;99700.38;5262729;28;20032;-78
2022/09/27 06:41:38;;;;;;;4.50;2.10;;;;;;;7.15;100.00;99698.66;5266372;28;20031;-77
2022/09/27 06:44:10;;;;;;;5.93;2.20;;;;;;;7.22;100.00;99697.69;5264505;28;20047;-78
2022/09/27 06:46:41;;;;;;;6.10;2.38;;;;;;;7.20;100.00;99700.28;5263166;28;20061;-77
2022/09/27 06:49:12;;;;;;;11.70;3.00;;;;;;;7.17;100.00;99710.72;5262486;28;20123;-79
2022/09/27 06:51:44;;;;;;;4.30;2.40;;;;;;;7.27;100.00;99706.22;5262495;28;20033;-78
2022/09/27 06:54:16;;;;;;;6.45;2.92;;;;;;;7.27;100.00;99694.13;5262279;28;20496;-78
2022/09/27 06:56:47;;;;;;;6.73;3.10;;;;;;;7.27;100.00;99699.31;5262732;28;20033;-78
2022/09/27 07:02:09;;;;;;;8.30;3.03;;;;;;;7.28;100.00;99700.19;5262955;28;20041;-77
2022/09/27 07:04:40;;;;;;;4.93;2.77;;;;;;;7.23;100.00;99705.44;5262079;28;20033;-78
2022/09/27 07:07:12;;;;;;;5.47;2.80;;;;;;;7.28;100.00;99700.19;5262350;28;20388;-78
2022/09/27 07:09:44;;;;;;;5.70;3.10;;;;;;;7.39;100.00;99703.44;5262309;28;20041;-77
2022/09/27 07:12:15;;;;;;;5.73;3.23;;;;;;;7.39;100.00;99708.63;5262132;28;20029;-78
2022/09/27 07:14:48;;;;;;;6.63;3.13;;;;;;;7.39;100.00;99703.44;5262812;28;20049;-77
2022/09/27 07:17:20;;;;;;;7.78;3.40;;;;;;;7.41;100.00;99696.47;5261868;28;20037;-78
2022/09/27 07:19:51;;;;;;;6.40;3.07;;;;;;;7.53;100.00;99708.38;5264052;28;20039;-78
2022/09/27 07:22:22;;;;;;;5.23;3.20;;;;;;;7.53;100.00;99702.34;5266903;28;20112;-78
2022/09/27 07:24:54;;;;;;;8.33;3.50;;;;;;;7.70;100.00;99704.66;5266539;28;20064;-77
2022/09/27 07:27:25;;;;;;;7.30;3.60;;;;;;;7.66;100.00;99715.06;5266514;28;20380;-77
2022/09/27 07:29:56;;;;;;;7.47;4.23;;;;;;;7.60;100.00;99715.19;5266552;28;20068;-78
2022/09/27 07:32:28;;;;;;;11.73;3.73;;;;;;;7.66;100.00;99720.25;5266388;28;20037;-78
2022/09/27 07:34:59;;;;;;;3.93;3.30;;;;;;;7.63;100.00;99716.84;5266304;28;20029;-77
2022/09/27 07:37:34;;;;;;;7.20;4.23;;;;;;;7.68;100.00;99720.22;5267210;28;20467;-76
2022/09/27 07:40:08;;;;;;;5.88;3.83;;;;;;;7.69;100.00;99721.06;5268550;28;20090;-76
2022/09/27 07:42:42;;;;;;;6.85;4.15;;;;;;;7.70;100.00;99715.03;5271774;28;20045;-78
2022/09/27 07:45:14;;;;;;;6.93;3.75;;;;;;;7.74;100.00;99720.09;5266752;28;20064;-78
2022/09/27 07:47:47;;;;;;;7.95;3.95;;;;;;;7.76;100.00;99722.66;5266424;28;20068;-76
2022/09/27 07:50:18;;;;;;;7.93;5.10;;;;;;;7.75;100.00;99711.44;5266186;28;20029;-76
2022/09/27 07:52:50;;;;;;;7.57;5.67;;;;;;;7.81;100.00;99719.13;5266032;28;20039;-76
2022/09/27 07:55:23;;;;;;;8.50;5.87;;;;;;;7.76;100.00;99727.84;5266423;28;20460;-78
2022/09/27 07:58:06;;;;;;;8.90;5.20;;;;;;;7.85;100.00;99727.69;5265800;28;20033;-76
2022/09/27 08:00:39;;;;;;;11.23;6.07;;;;;;;7.88;100.00;99738.00;5265834;28;20028;-79
2022/09/27 08:03:15;;;;;;;13.00;7.45;;;;;;;7.87;100.00;99740.63;5266383;28;20111;-76
2022/09/27 08:05:47;;;;;;;9.63;6.18;;;;;;;7.88;100.00;99744.94;5265776;28;20037;-77
2022/09/27 08:08:18;;;;;;;9.37;6.30;;;;;;;7.87;100.00;99744.06;5265789;28;20043;-76
2022/09/27 08:10:49;;;;;;;8.63;6.33;;;;;;;7.86;100.00;99747.56;5265377;28;20473;-76
2022/09/27 08:13:21;;;;;;;11.03;6.30;;;;;;;7.88;100.00;99745.78;5265907;28;20443;-77
2022/09/27 08:15:52;;;;;;;11.63;6.90;;;;;;;7.98;100.00;99746.47;5266018;28;20064;-76
2022/09/27 08:18:24;;;;;;;12.47;7.17;;;;;;;7.99;100.00;99751.66;5265481;28;20033;-76
2022/09/27 08:20:59;;;;;;;9.40;7.37;;;;;;;8.07;100.00;99755.84;5265490;28;20029;-75
2022/09/27 08:23:31;;;;;;;10.20;7.25;;;;;;;8.11;100.00;99749.69;5265172;28;20163;-76
2022/09/27 08:26:02;;;;;;;10.60;7.87;;;;;;;8.07;100.00;99745.47;5265212;28;20116;-75
2022/09/27 08:28:33;;;;;;;10.63;8.37;;;;;;;8.11;100.00;99753.13;5265108;28;20136;-78
2022/09/27 08:31:05;;;;;;;13.80;8.63;;;;;;;8.13;100.00;99745.31;5264711;28;20487;-76
2022/09/27 08:33:36;;;;;;;11.77;8.70;;;;;;;8.12;100.00;99748.81;5265772;28;20025;-76
2022/09/27 08:36:12;;;;;;;10.70;8.97;;;;;;;8.21;100.00;99746.03;5265171;28;20127;-75
2022/09/27 08:38:43;;;;;;;12.25;10.30;;;;;;;8.17;100.00;99742.63;5265318;28;20060;-76
2022/09/27 08:41:32;;;;;;;12.23;9.97;;;;;;;8.27;100.00;99734.69;5265392;28;20029;-76
2022/09/27 08:44:27;;;;;;;12.10;10.43;;;;;;;8.31;100.00;99739.78;5264956;28;20032;-76
2022/09/27 08:47:21;;;;;;;16.23;11.68;;;;;;;8.40;100.00;99746.50;5264920;28;20029;-76
2022/09/27 08:50:07;;;;;;;19.15;11.70;;;;;;;8.49;100.00;99748.13;5265331;28;20057;-76
2022/09/27 08:52:43;;;;;;;12.65;11.38;;;;;;;8.49;100.00;99748.13;5264516;28;20037;-75
2022/09/27 08:55:36;;;;;;;13.52;10.75;;;;;;;8.47;100.00;99750.75;5265100;28;20029;-77
2022/09/27 08:58:27;;;;;;;;;;;;;;;8.47;100.00;99745.56;5265343;28;20047;-76
2022/09/27 09:01:05;;;;;;;11.15;10.02;;;;;;;8.47;100.00;99755.94;5264549;28;19908;-76
2022/09/27 09:03:42;;;;;;;13.43;12.02;;;;;;;8.44;100.00;99749.97;5264693;28;20468;-76
2022/09/27 09:06:27;;;;;;;13.85;12.35;;;;;;;8.53;100.00;99745.44;5264730;28;20075;-75
2022/09/27 09:09:26;;;;;;;15.50;13.85;;;;;;;8.57;100.00;99747.06;5265092;28;20611;-76
2022/09/27 09:15:53;;;;;;;16.33;12.30;;;;;;;8.59;100.00;99747.03;5264284;28;20045;-76
2022/09/27 09:18:42;;;;;;;17.15;12.45;;;;;;;8.68;100.00;99767.63;5264744;28;20167;-76
2022/09/27 09:21:34;;;;;;;14.57;11.50;;;;;;;8.71;100.00;99767.56;5264462;28;20029;-76
2022/09/27 09:24:12;;;;;;;13.85;12.43;;;;;;;8.74;100.00;99769.22;5264335;28;20478;-77
2022/09/27 09:27:07;;;;;;;16.48;11.98;;;;;;;8.79;100.00;99763.91;5264704;28;20364;-76
2022/09/27 09:30:08;;;;;;;15.98;13.50;;;;;;;8.78;100.00;99757.03;5264619;28;20364;-77
2022/09/27 09:33:08;;;;;;;18.38;14.25;;;;;;;8.74;100.00;99777.00;5264121;28;20107;-79
2022/09/27 09:36:03;;;;;;;17.23;14.40;;;;;;;8.76;100.00;99767.47;5264167;28;20029;-78
2022/09/27 09:38:49;;;;;;;23.05;16.55;;;;;;;8.84;100.00;99770.75;5263937;28;20025;-77
2022/09/27 09:41:32;;;;;;;21.35;15.90;;;;;;;8.87;100.00;99773.28;5263636;28;20045;-76
2022/09/27 09:44:09;;;;;;;;;;;;;;;8.79;100.00;99776.91;5264517;28;20063;-77
2022/09/27 09:46:44;;;;;;;18.23;15.93;;;;;;;8.75;100.00;99770.94;5264042;28;20027;-77
2022/09/27 09:49:38;;;;;;;19.35;16.15;;;;;;;8.72;100.00;99771.84;5263798;28;20033;-77
2022/09/27 09:52:22;;;;;;;22.58;16.45;;;;;;;8.66;100.00;99774.59;5263956;28;20520;-78
2022/09/27 09:55:02;;;;;;;16.40;14.40;;;;;;;8.49;100.00;99772.34;5264243;28;20037;-77
2022/09/27 09:57:55;;;;;;;28.65;16.10;;;;;;;8.44;100.00;99769.00;5263911;28;20033;-78
2022/09/27 10:00:26;;;;;;;14.73;12.98;;;;;;;8.45;100.00;99775.88;5263905;28;20031;-76
2022/09/27 10:02:58;;;;;;;14.10;11.43;;;;;;;8.48;100.00;99774.97;5263554;28;20459;-76
2022/09/27 10:05:30;;;;;;;11.38;10.07;;;;;;;8.53;100.00;99783.50;5264010;28;20029;-76
2022/09/27 10:08:06;;;;;;;11.33;9.63;;;;;;;8.53;100.00;99779.19;5263429;28;20044;-77
2022/09/27 10:10:39;;;;;;;13.52;5.57;;;;;;;8.33;100.00;99770.91;5263380;28;20047;-75
2022/09/27 10:13:19;;;;;;;8.30;5.45;;;;;;;8.27;100.00;99769.28;5261836;28;20476;-75
2022/09/27 10:16:04;;;;;;;6.25;4.93;;;;;;;8.15;100.00;99769.53;5263277;28;20075;-75
2022/09/27 10:18:40;;;;;;;6.88;3.67;;;;;;;8.13;100.00;99779.94;5263412;28;20032;-75
2022/09/27 10:21:19;;;;;;;8.70;3.60;;;;;;;8.07;100.00;99777.47;5263470;28;20033;-75
2022/09/27 10:24:03;;;;;;;7.55;3.25;;;;;;;8.10;100.00;99767.03;5263222;28;20407;-75
2022/09/27 10:26:36;;;;;;;8.40;3.72;;;;;;;7.98;100.00;99790.59;5261672;28;20120;-75
2022/09/27 10:29:29;;;;;;;8.07;4.13;;;;;;;7.91;100.00;99776.88;5261642;28;20064;-77
2022/09/27 10:32:03;;;;;;;5.18;2.40;;;;;;;7.88;100.00;99781.28;5262833;28;20468;-75
2022/09/27 10:34:39;;;;;;;6.10;2.80;;;;;;;7.80;100.00;99777.06;5263325;28;20446;-75
2022/09/27 10:37:10;;;;;;;4.63;2.53;;;;;;;7.75;100.00;99785.81;5263718;28;20032;-76
2022/09/27 10:39:45;;;;;;;2.67;1.80;;;;;;;7.69;100.00;99793.72;5263636;28;20029;-75
2022/09/27 10:42:32;;;;;;;5.35;1.45;;;;;;;7.74;100.00;99790.13;5262965;28;20029;-75
2022/09/27 10:45:29;;;;;;;3.30;1.33;;;;;;;7.73;100.00;99787.56;5262970;28;20056;-75
2022/09/27 10:48:01;;;;;;;4.05;1.27;;;;;;;7.72;100.00;99780.69;5262952;28;20071;-75
2022/09/27 10:50:38;;;;;;;2.03;1.23;;;;;;;7.83;100.00;99789.13;5262672;28;20114;-75
2022/09/27 10:53:15;;;;;;;2.33;1.20;;;;;;;7.80;100.00;99794.38;5263318;28;20039;-75
2022/09/27 10:55:49;;;;;;;4.07;1.45;;;;;;;7.88;100.00;99783.88;5262459;28;20025;-75
2022/09/27 10:58:31;;;;;;;3.63;1.45;;;;;;;8.00;100.00;99781.03;5262601;28;20024;-75
2022/09/27 11:01:07;;;;;;;3.80;1.67;;;;;;;8.04;100.00;99793.94;5262486;28;20025;-75
2022/09/27 11:03:57;;;;;;;3.53;1.50;;;;;;;8.06;100.00;99790.47;5262418;28;20028;-76
2022/09/27 11:06:36;;;;;;;4.45;1.73;;;;;;;8.15;100.00;99785.09;5260984;28;20029;-75
2022/09/27 11:09:23;;;;;;;4.55;1.20;;;;;;;8.03;100.00;99780.97;5262647;28;20052;-75
2022/09/27 11:12:09;;;;;;;2.80;1.30;;;;;;;8.10;100.00;99785.19;5262426;28;20461;-74
2022/09/27 11:14:41;;;;;;;2.38;0.90;;;;;;;8.06;100.00;99777.50;5261787;28;20045;-74
2022/09/27 11:17:16;;;;;;;2.20;1.00;;;;;;;8.19;100.00;99781.56;5262667;28;20036;-75
2022/09/27 11:19:48;;;;;;;3.45;1.20;;;;;;;8.37;100.00;99772.53;5262343;28;20448;-75
2022/09/27 11:22:26;;;;;;;1.80;0.87;;;;;;;8.31;100.00;99765.75;5261871;28;20029;-75
2022/09/27 11:25:38;;;;;;;4.47;1.30;;;;;;;8.67;100.00;99759.84;5262216;28;20033;-75
2022/09/27 11:28:44;;;;;;;4.97;1.23;;;;;;;9.08;100.00;99765.88;5262949;28;20033;-75
2022/09/27 11:31:30;;;;;;;4.05;1.02;;;;;;;9.43;100.00;99764.19;5262462;28;20029;-75
2022/09/27 11:34:13;;;;;;;3.92;1.08;;;;;;;9.55;100.00;99763.88;5263392;28;20029;-75
2022/09/27 11:37:06;;;;;;;4.07;1.42;;;;;;;9.91;100.00;99755.19;5261895;28;20026;-75
2022/09/27 11:39:41;;;;;;;2.03;1.10;;;;;;;9.93;99.37;99759.44;5262055;28;20033;-75
2022/09/27 11:42:22;;;;;;;4.30;1.08;;;;;;;10.11;100.00;99754.63;5261743;28;20084;-75
2022/09/27 11:45:01;;;;;;;3.92;1.27;;;;;;;10.68;100.00;99759.09;5262390;28;20094;-75
2022/09/27 11:47:49;;;;;;;2.38;1.17;;;;;;;11.30;100.00;99760.69;5262314;28;20033;-75
2022/09/27 11:50:43;;;;;;;3.60;1.73;;;;;;;11.64;95.68;99756.97;5261903;28;20045;-75
2022/09/27 11:53:49;;;;;;;2.90;1.08;;;;;;;11.57;90.59;99759.81;5262132;28;20108;-75
2022/09/27 11:56:42;;;;;;;3.50;1.23;;;;;;;11.29;89.68;99761.56;5260563;28;20106;-75
2022/09/27 11:59:38;;;;;;;3.13;0.90;;;;;;;11.02;88.30;99763.28;5262211;28;20037;-75
2022/09/27 12:02:18;;;;;;;3.20;1.30;;;;;;;11.06;90.25;99748.41;5262421;28;20456;-75
2022/09/27 12:05:07;;;;;;;3.08;1.40;;;;;;;11.27;87.37;99759.91;5262519;28;20035;-76
2022/09/27 12:07:44;;;;;;;3.42;1.30;;;;;;;11.57;88.26;99757.22;5266259;28;20033;-75
2022/09/27 12:10:18;;;;;;;2.30;1.13;;;;;;;11.98;84.36;99760.22;5265714;28;20380;-75
2022/09/27 12:12:52;;;;;;;1.25;0.88;;;;;;;12.31;91.95;99754.69;5265680;28;20052;-75
2022/09/27 12:15:32;;;;;;;1.50;0.90;;;;;;;12.11;84.12;99758.88;5265609;28;20476;-75
2022/09/27 12:18:21;;;;;;;4.28;1.25;;;;;;;11.67;82.75;99750.75;5266400;28;20036;-75
2022/09/27 12:20:54;;;;;;;2.88;1.20;;;;;;;11.51;81.78;99753.03;5265433;28;20037;-76
2022/09/27 12:23:33;;;;;;;;;;;;;;;11.95;85.68;99755.94;5265944;28;20029;-75
2022/09/27 12:26:13;;;;;;;2.50;1.10;;;;;;;11.46;81.88;99747.13;5265907;28;19909;-76
2022/09/27 12:29:22;;;;;;;3.75;1.15;;;;;;;11.57;87.97;99749.38;5265767;28;20345;-76